createdAt,value
2022-11-24T00:00:30.385Z,968.10
2022-11-24T00:01:00.936Z,968.10
2022-11-24T00:01:32.053Z,968.10
2022-11-24T00:02:03.273Z,968.00
2022-11-24T00:02:33.813Z,968.00
2022-11-24T00:03:04.922Z,968.10
2022-11-24T00:03:36.066Z,968.10
2022-11-24T00:04:06.792Z,968.10
2022-11-24T00:04:39.622Z,968.10
2022-11-24T00:05:10.226Z,968.10
2022-11-24T00:05:40.298Z,968.20
2022-11-24T00:06:11.101Z,968.20
2022-11-24T00:06:41.911Z,968.20
2022-11-24T00:07:13.017Z,968.20
2022-11-24T00:07:43.694Z,968.20
2022-11-24T00:08:14.998Z,968.20
2022-11-24T00:08:45.772Z,968.20
2022-11-24T00:09:17.204Z,968.20
2022-11-24T00:09:48.303Z,968.20
2022-11-24T00:10:19.373Z,968.20
2022-11-24T00:11:07.458Z,968.30
2022-11-24T00:11:21.823Z,968.30
2022-11-24T00:12:09.684Z,968.20
2022-11-24T00:12:22.975Z,968.20
2022-11-24T00:12:54.041Z,968.30
2022-11-24T00:13:24.833Z,968.30
2022-11-24T00:13:55.593Z,968.20
2022-11-24T00:14:27.149Z,968.20
2022-11-24T00:14:58.130Z,968.40
2022-11-24T00:15:29.692Z,968.40
2022-11-24T00:16:31.233Z,968.10
2022-11-24T00:17:01.948Z,968.20
2022-11-24T00:17:32.957Z,968.20
2022-11-24T00:18:03.666Z,968.10
2022-11-24T00:18:34.863Z,968.10
2022-11-24T00:19:06.075Z,968.40
2022-11-24T00:19:36.721Z,968.30
2022-11-24T00:20:09.220Z,968.30
2022-11-24T00:21:12.041Z,968.30
2022-11-24T00:21:41.117Z,968.00
2022-11-24T00:22:12.442Z,968.00
2022-11-24T00:22:43.404Z,968.30
2022-11-24T00:23:14.056Z,968.30
2022-11-24T00:23:44.769Z,968.30
2022-11-24T00:24:15.658Z,968.30
2022-11-24T00:24:46.726Z,968.20
2022-11-24T00:25:18.789Z,968.20
2022-11-24T00:25:49.296Z,968.30
2022-11-24T00:26:20.877Z,968.30
2022-11-24T00:26:51.154Z,968.51
2022-11-24T00:27:21.610Z,968.51
2022-11-24T00:27:53.139Z,968.20
2022-11-24T00:28:54.688Z,968.20
2022-11-24T00:29:25.439Z,968.20
2022-11-24T00:29:56.897Z,968.40
2022-11-24T00:30:28.604Z,968.40
2022-11-24T00:30:59.896Z,968.30
2022-11-24T00:31:30.710Z,968.30
2022-11-24T00:32:01.144Z,968.30
2022-11-24T00:32:37.368Z,968.30
2022-11-24T00:33:03.102Z,968.51
2022-11-24T00:33:33.949Z,968.51
2022-11-24T00:34:04.922Z,968.20
2022-11-24T00:34:36.181Z,968.40
2022-11-24T00:35:07.182Z,968.40
2022-11-24T00:35:38.605Z,968.40
2022-11-24T00:36:09.971Z,968.40
2022-11-24T00:36:40.357Z,968.40
2022-11-24T00:37:11.389Z,968.40
2022-11-24T00:37:41.637Z,968.51
2022-11-24T00:38:13.234Z,968.51
2022-11-24T00:38:43.919Z,968.51
2022-11-24T00:39:14.946Z,968.51
2022-11-24T00:39:45.859Z,968.30
2022-11-24T00:40:17.245Z,968.30
2022-11-24T00:40:48.402Z,968.30
2022-11-24T00:41:19.765Z,968.30
2022-11-24T00:41:50.323Z,968.40
2022-11-24T00:42:24.141Z,968.40
2022-11-24T00:42:53.224Z,968.40
2022-11-24T00:43:22.960Z,968.40
2022-11-24T00:43:53.961Z,968.51
2022-11-24T00:44:25.178Z,968.51
2022-11-24T00:44:55.757Z,968.40
2022-11-24T00:45:27.139Z,968.40
2022-11-24T00:45:58.985Z,968.51
2022-11-24T00:46:29.850Z,968.51
2022-11-24T00:47:00.712Z,968.61
2022-11-24T00:47:31.239Z,968.61
2022-11-24T00:48:02.341Z,968.40
2022-11-24T00:48:33.053Z,968.40
2022-11-24T00:49:03.718Z,968.40
2022-11-24T00:49:35.045Z,968.40
2022-11-24T00:50:06.428Z,968.30
2022-11-24T00:50:36.818Z,968.71
2022-11-24T00:51:08.192Z,968.71
2022-11-24T00:51:40.189Z,968.51
2022-11-24T00:52:10.954Z,968.51
2022-11-24T00:52:41.884Z,968.61
2022-11-24T00:53:12.145Z,968.61
2022-11-24T00:53:43.517Z,968.51
2022-11-24T00:54:13.533Z,968.51
2022-11-24T00:54:44.741Z,968.71
2022-11-24T00:55:15.672Z,968.71
2022-11-24T00:56:02.066Z,968.81
2022-11-24T00:56:17.627Z,968.81
2022-11-24T00:57:04.897Z,968.71
2022-11-24T00:57:21.481Z,968.71
2022-11-24T00:57:52.138Z,968.71
2022-11-24T00:58:22.392Z,968.71
2022-11-24T00:58:53.352Z,968.71
2022-11-24T00:59:34.438Z,968.71
2022-11-24T00:59:54.558Z,968.71
2022-11-24T01:00:26.119Z,968.71
2022-11-24T01:01:14.062Z,968.91
2022-11-24T01:01:29.353Z,968.91
2022-11-24T01:02:00.452Z,968.71
2022-11-24T01:03:01.796Z,968.91
2022-11-24T01:03:31.732Z,968.91
2022-11-24T01:04:03.270Z,968.61
2022-11-24T01:04:34.137Z,968.61
2022-11-24T01:05:35.902Z,968.71
2022-11-24T01:06:06.803Z,968.61
2022-11-24T01:06:38.930Z,968.81
2022-11-24T01:07:10.129Z,968.81
2022-11-24T01:07:41.881Z,968.61
2022-11-24T01:08:16.683Z,968.61
2022-11-24T01:08:43.785Z,968.71
2022-11-24T01:09:13.777Z,968.71
2022-11-24T01:09:44.445Z,968.71
2022-11-24T01:10:15.642Z,968.71
2022-11-24T01:10:46.194Z,968.81
2022-11-24T01:11:17.909Z,968.81
2022-11-24T01:11:48.884Z,968.81
2022-11-24T01:12:20.292Z,968.81
2022-11-24T01:12:50.849Z,969.01
2022-11-24T01:13:22.130Z,969.01
2022-11-24T01:13:52.721Z,969.01
2022-11-24T01:14:23.522Z,969.01
2022-11-24T01:14:54.182Z,969.01
2022-11-24T01:15:26.300Z,969.01
2022-11-24T01:15:56.104Z,968.81
2022-11-24T01:16:27.138Z,968.81
2022-11-24T01:16:57.994Z,968.91
2022-11-24T01:17:40.486Z,968.91
2022-11-24T01:18:01.564Z,968.91
2022-11-24T01:18:31.679Z,968.91
2022-11-24T01:19:21.065Z,969.01
2022-11-24T01:19:37.442Z,969.01
2022-11-24T01:20:04.561Z,968.91
2022-11-24T01:20:35.368Z,968.91
2022-11-24T01:21:10.024Z,968.91
2022-11-24T01:21:37.445Z,968.91
2022-11-24T01:22:08.552Z,968.91
2022-11-24T01:22:39.720Z,969.11
2022-11-24T01:23:12.066Z,969.11
2022-11-24T01:23:42.060Z,968.81
2022-11-24T01:24:13.562Z,968.81
2022-11-24T01:24:43.508Z,969.01
2022-11-24T01:25:14.634Z,969.01
2022-11-24T01:25:45.308Z,969.01
2022-11-24T01:26:47.540Z,969.11
2022-11-24T01:27:20.285Z,969.11
2022-11-24T01:28:09.606Z,968.81
2022-11-24T01:28:21.892Z,968.81
2022-11-24T01:28:52.677Z,969.01
2022-11-24T01:29:23.292Z,969.01
2022-11-24T01:29:54.499Z,969.01
2022-11-24T01:30:25.419Z,969.01
2022-11-24T01:30:55.845Z,969.11
2022-11-24T01:31:27.119Z,969.11
2022-11-24T01:31:57.594Z,968.91
2022-11-24T01:32:29.101Z,968.91
2022-11-24T01:33:31.776Z,968.91
2022-11-24T01:34:51.466Z,969.01
2022-11-24T01:35:04.701Z,969.11
2022-11-24T01:35:34.371Z,969.11
2022-11-24T01:36:05.566Z,969.18
2022-11-24T01:36:38.010Z,969.01
2022-11-24T01:37:24.799Z,969.01
2022-11-24T01:37:38.878Z,969.11
2022-11-24T01:38:09.991Z,969.11
2022-11-24T01:38:40.637Z,969.01
2022-11-24T01:39:14.260Z,969.01
2022-11-24T01:39:43.252Z,969.01
2022-11-24T01:40:13.950Z,969.01
2022-11-24T01:40:44.705Z,969.11
2022-11-24T01:41:15.708Z,969.11
2022-11-24T01:41:46.815Z,969.11
2022-11-24T01:42:17.373Z,969.11
2022-11-24T01:42:48.635Z,969.28
2022-11-24T01:43:19.829Z,969.28
2022-11-24T01:43:51.308Z,969.01
2022-11-24T01:44:22.432Z,969.01
2022-11-24T01:44:53.212Z,969.18
2022-11-24T01:45:24.823Z,969.18
2022-11-24T01:45:55.769Z,969.11
2022-11-24T01:46:25.650Z,969.11
2022-11-24T01:46:56.647Z,968.81
2022-11-24T01:48:00.447Z,969.11
2022-11-24T01:48:29.314Z,969.11
2022-11-24T01:49:00.272Z,968.91
2022-11-24T01:49:32.190Z,968.91
2022-11-24T01:50:03.471Z,969.01
2022-11-24T01:51:04.804Z,969.01
2022-11-24T01:51:35.441Z,969.01
2022-11-24T01:52:16.621Z,969.18
2022-11-24T01:52:37.169Z,969.01
2022-11-24T01:53:08.726Z,969.01
2022-11-24T01:53:39.092Z,969.01
2022-11-24T01:54:10.193Z,969.01
2022-11-24T01:54:42.499Z,969.01
2022-11-24T01:55:28.798Z,969.01
2022-11-24T01:55:44.516Z,969.11
2022-11-24T02:00:34.622Z,969.11
2022-11-24T02:00:54.664Z,969.11
2022-11-24T02:01:26.128Z,969.11
2022-11-24T02:01:56.276Z,969.11
2022-11-24T02:02:28.023Z,969.11
2022-11-24T02:03:20.745Z,969.18
2022-11-24T02:03:51.777Z,969.18
2022-11-24T02:04:22.236Z,969.18
2022-11-24T02:04:53.741Z,969.18
2022-11-24T02:05:25.220Z,969.18
2022-11-24T02:05:56.569Z,969.18
2022-11-24T02:06:26.935Z,969.18
2022-11-24T02:06:58.578Z,969.18
2022-11-24T02:07:28.575Z,969.18
2022-11-24T02:07:59.600Z,969.11
2022-11-24T02:09:01.499Z,969.28
2022-11-24T02:09:33.045Z,969.28
2022-11-24T02:10:10.028Z,969.11
2022-11-24T02:10:34.788Z,969.11
2022-11-24T02:11:06.534Z,969.18
2022-11-24T02:11:37.263Z,969.28
2022-11-24T02:12:08.199Z,969.28
2022-11-24T02:12:39.102Z,969.18
2022-11-24T02:13:09.627Z,969.18
2022-11-24T02:13:40.487Z,969.18
2022-11-24T02:14:11.561Z,969.18
2022-11-24T02:14:42.876Z,969.28
2022-11-24T02:15:49.865Z,969.28
2022-11-24T02:16:05.729Z,969.28
2022-11-24T02:16:37.053Z,969.11
2022-11-24T02:17:08.276Z,969.11
2022-11-24T02:17:38.801Z,969.18
2022-11-24T02:18:09.325Z,969.18
2022-11-24T02:18:40.659Z,969.11
2022-11-24T02:19:11.585Z,969.11
2022-11-24T02:19:42.749Z,969.28
2022-11-24T02:20:13.973Z,969.28
2022-11-24T02:20:45.072Z,969.59
2022-11-24T02:21:16.097Z,969.59
2022-11-24T02:21:47.473Z,969.28
2022-11-24T02:22:18.660Z,969.28
2022-11-24T02:22:48.794Z,969.28
2022-11-24T02:23:19.829Z,969.28
2022-11-24T02:23:50.240Z,969.49
2022-11-24T02:24:21.313Z,969.49
2022-11-24T02:24:52.003Z,969.39
2022-11-24T02:25:23.812Z,969.39
2022-11-24T02:25:54.873Z,969.39
2022-11-24T02:26:25.476Z,969.39
2022-11-24T02:26:57.025Z,969.39
2022-11-24T02:27:48.080Z,969.39
2022-11-24T02:27:59.482Z,969.39
2022-11-24T02:28:29.101Z,969.39
2022-11-24T02:29:01.153Z,969.18
2022-11-24T02:29:31.901Z,969.18
2022-11-24T02:30:02.967Z,969.18
2022-11-24T02:30:33.631Z,969.18
2022-11-24T02:31:04.379Z,969.28
2022-11-24T02:31:36.161Z,969.28
2022-11-24T02:32:07.134Z,969.39
2022-11-24T02:32:37.671Z,969.49
2022-11-24T02:33:08.367Z,969.49
2022-11-24T02:33:39.049Z,969.59
2022-11-24T02:34:10.421Z,969.59
2022-11-24T02:34:40.920Z,969.39
2022-11-24T02:35:12.149Z,969.39
2022-11-24T02:35:43.490Z,969.59
2022-11-24T02:36:31.519Z,969.59
2022-11-24T02:36:45.218Z,969.59
2022-11-24T02:37:16.999Z,969.59
2022-11-24T02:37:47.731Z,969.39
2022-11-24T02:38:18.074Z,969.39
2022-11-24T02:38:49.117Z,969.49
2022-11-24T02:39:20.214Z,969.49
2022-11-24T02:39:51.220Z,969.49
2022-11-24T02:40:22.389Z,969.49
2022-11-24T02:40:53.679Z,969.49
2022-11-24T02:41:24.548Z,969.49
2022-11-24T02:41:55.958Z,969.39
2022-11-24T02:42:27.108Z,969.39
2022-11-24T02:42:57.656Z,969.49
2022-11-24T02:43:28.480Z,969.49
2022-11-24T02:43:59.321Z,969.49
2022-11-24T02:44:30.173Z,969.49
2022-11-24T02:45:02.469Z,969.59
2022-11-24T02:45:32.575Z,969.59
2022-11-24T02:46:03.851Z,969.49
2022-11-24T02:46:35.736Z,969.49
2022-11-24T02:47:05.641Z,969.59
2022-11-24T02:47:37.007Z,969.28
2022-11-24T02:48:07.822Z,969.28
2022-11-24T02:48:38.097Z,969.59
2022-11-24T02:49:09.908Z,969.59
2022-11-24T02:49:40.388Z,969.49
2022-11-24T02:50:12.171Z,969.49
2022-11-24T02:50:42.593Z,969.59
2022-11-24T02:51:13.507Z,969.59
2022-11-24T02:51:44.362Z,969.59
2022-11-24T02:52:47.374Z,969.59
2022-11-24T02:53:17.812Z,969.59
2022-11-24T02:53:48.431Z,969.69
2022-11-24T02:54:37.338Z,969.79
2022-11-24T02:54:50.205Z,969.79
2022-11-24T02:55:21.080Z,969.79
2022-11-24T02:55:52.269Z,969.69
2022-11-24T02:56:24.041Z,969.69
2022-11-24T02:56:54.340Z,969.49
2022-11-24T02:57:26.044Z,969.49
2022-11-24T02:57:57.122Z,969.69
2022-11-24T02:58:27.805Z,969.69
2022-11-24T02:58:58.481Z,969.59
2022-11-24T02:59:31.962Z,969.59
2022-11-24T03:00:00.172Z,969.79
2022-11-24T03:00:32.341Z,969.79
2022-11-24T03:01:02.086Z,969.69
2022-11-24T03:01:33.755Z,969.69
2022-11-24T03:02:04.206Z,969.69
2022-11-24T03:02:35.473Z,969.69
2022-11-24T03:03:23.811Z,969.69
2022-11-24T03:03:38.048Z,969.59
2022-11-24T03:04:08.642Z,969.59
2022-11-24T03:04:39.860Z,969.69
2022-11-24T03:05:11.525Z,969.69
2022-11-24T03:05:41.435Z,969.39
2022-11-24T03:06:12.727Z,969.39
2022-11-24T03:06:43.852Z,969.59
2022-11-24T03:07:15.402Z,969.59
2022-11-24T03:07:45.649Z,969.79
2022-11-24T03:08:17.102Z,969.79
2022-11-24T03:08:47.719Z,969.79
2022-11-24T03:09:19.286Z,969.79
2022-11-24T03:09:49.277Z,969.79
2022-11-24T03:10:20.849Z,969.79
2022-11-24T03:10:51.460Z,969.69
2022-11-24T03:11:22.275Z,969.69
2022-11-24T03:11:53.715Z,969.79
2022-11-24T03:12:24.321Z,969.79
2022-11-24T03:12:56.323Z,969.59
2022-11-24T03:13:27.217Z,969.59
2022-11-24T03:13:57.681Z,969.59
2022-11-24T03:14:28.705Z,969.59
2022-11-24T03:14:59.494Z,969.59
2022-11-24T03:15:30.590Z,969.59
2022-11-24T03:16:02.193Z,969.69
2022-11-24T03:16:32.519Z,969.69
2022-11-24T03:17:03.989Z,969.59
2022-11-24T03:17:34.159Z,969.59
2022-11-24T03:18:05.603Z,969.59
2022-11-24T03:18:37.160Z,969.79
2022-11-24T03:19:11.919Z,969.79
2022-11-24T03:19:39.107Z,969.69
2022-11-24T03:20:10.309Z,969.69
2022-11-24T03:20:40.616Z,969.79
2022-11-24T03:21:11.533Z,969.79
2022-11-24T03:21:42.573Z,969.59
2022-11-24T03:22:13.974Z,969.59
2022-11-24T03:22:44.420Z,969.59
2022-11-24T03:23:16.449Z,969.59
2022-11-24T03:23:47.743Z,969.59
2022-11-24T03:24:18.122Z,969.59
2022-11-24T03:24:48.903Z,969.79
2022-11-24T03:25:19.899Z,969.79
2022-11-24T03:25:50.217Z,969.69
2022-11-24T03:26:22.463Z,969.69
2022-11-24T03:26:52.558Z,969.79
2022-11-24T03:27:23.619Z,969.79
2022-11-24T03:27:54.726Z,969.89
2022-11-24T03:28:25.241Z,969.89
2022-11-24T03:28:56.059Z,969.79
2022-11-24T03:29:28.141Z,969.79
2022-11-24T03:30:17.721Z,969.89
2022-11-24T03:31:07.676Z,969.49
2022-11-24T03:31:31.344Z,969.49
2022-11-24T03:32:03.362Z,969.69
2022-11-24T03:32:33.999Z,969.69
2022-11-24T03:33:05.562Z,969.69
2022-11-24T03:33:35.563Z,969.69
2022-11-24T03:34:07.828Z,970.00
2022-11-24T03:34:38.511Z,969.89
2022-11-24T03:35:09.940Z,969.89
2022-11-24T03:35:39.800Z,969.79
2022-11-24T03:36:10.960Z,969.79
2022-11-24T03:36:41.340Z,969.59
2022-11-24T03:37:12.606Z,969.59
2022-11-24T03:37:44.062Z,969.79
2022-11-24T03:38:14.566Z,969.79
2022-11-24T03:38:45.337Z,969.89
2022-11-24T03:39:17.289Z,969.89
2022-11-24T03:39:48.128Z,969.89
2022-11-24T03:40:28.997Z,969.89
2022-11-24T03:40:49.382Z,969.79
2022-11-24T03:41:20.419Z,969.79
2022-11-24T03:41:51.458Z,969.69
2022-11-24T03:42:22.174Z,969.69
2022-11-24T03:42:53.793Z,969.79
2022-11-24T03:43:24.510Z,969.79
2022-11-24T03:43:55.320Z,970.00
2022-11-24T03:44:27.359Z,970.00
2022-11-24T03:45:01.644Z,969.79
2022-11-24T03:45:45.580Z,969.79
2022-11-24T03:45:59.595Z,969.89
2022-11-24T03:47:01.545Z,969.89
2022-11-24T03:47:49.512Z,969.89
2022-11-24T03:48:04.351Z,969.89
2022-11-24T03:48:34.884Z,969.89
2022-11-24T03:49:07.461Z,970.00
2022-11-24T03:49:38.368Z,969.79
2022-11-24T03:50:09.842Z,969.79
2022-11-24T03:50:41.229Z,969.79
2022-11-24T03:51:40.592Z,969.79
2022-11-24T03:52:11.808Z,969.79
2022-11-24T03:52:42.817Z,969.89
2022-11-24T03:53:14.103Z,969.89
2022-11-24T03:54:01.542Z,969.89
2022-11-24T03:54:46.811Z,969.79
2022-11-24T03:55:19.332Z,969.79
2022-11-24T03:55:49.062Z,969.79
2022-11-24T03:56:19.889Z,969.79
2022-11-24T03:56:50.608Z,970.10
2022-11-24T03:57:21.864Z,970.10
2022-11-24T03:57:52.456Z,969.79
2022-11-24T03:58:23.897Z,969.79
2022-11-24T03:58:54.639Z,970.10
2022-11-24T03:59:25.527Z,970.10
2022-11-24T03:59:57.650Z,969.69
2022-11-24T04:00:28.828Z,969.69
2022-11-24T04:00:59.302Z,970.00
2022-11-24T04:01:30.166Z,970.00
2022-11-24T04:02:00.512Z,970.00
2022-11-24T04:02:32.449Z,970.00
2022-11-24T04:03:02.903Z,970.00
2022-11-24T04:03:35.023Z,970.00
2022-11-24T04:04:04.736Z,970.10
2022-11-24T04:04:36.213Z,970.10
2022-11-24T04:05:38.743Z,969.79
2022-11-24T04:06:09.391Z,969.79
2022-11-24T04:06:40.007Z,970.20
2022-11-24T04:07:10.779Z,970.20
2022-11-24T04:07:41.743Z,970.00
2022-11-24T04:08:30.369Z,970.00
2022-11-24T04:08:47.961Z,969.89
2022-11-24T04:09:14.863Z,969.89
2022-11-24T04:09:45.525Z,970.10
2022-11-24T04:10:17.252Z,970.10
2022-11-24T04:10:48.781Z,969.89
2022-11-24T04:11:19.636Z,969.89
2022-11-24T04:11:50.693Z,970.20
2022-11-24T04:12:20.993Z,970.20
2022-11-24T04:12:52.224Z,969.89
2022-11-24T04:13:22.600Z,969.89
2022-11-24T04:13:54.328Z,970.00
2022-11-24T04:14:25.003Z,970.00
2022-11-24T04:14:55.520Z,970.10
2022-11-24T04:15:26.702Z,970.10
2022-11-24T04:15:59.592Z,970.10
2022-11-24T04:16:30.171Z,970.10
2022-11-24T04:17:00.167Z,970.00
2022-11-24T04:17:30.632Z,970.00
2022-11-24T04:18:01.408Z,969.89
2022-11-24T04:18:32.377Z,969.89
2022-11-24T04:19:03.642Z,970.10
2022-11-24T04:19:34.692Z,970.10
2022-11-24T04:20:05.941Z,970.00
2022-11-24T04:20:36.715Z,970.00
2022-11-24T04:21:08.427Z,970.00
2022-11-24T04:21:39.125Z,970.10
2022-11-24T04:22:09.999Z,970.10
2022-11-24T04:22:40.604Z,970.10
2022-11-24T04:23:11.904Z,970.10
2022-11-24T04:23:42.675Z,970.00
2022-11-24T04:24:14.191Z,970.00
2022-11-24T04:24:44.976Z,970.10
2022-11-24T04:25:15.399Z,970.10
2022-11-24T04:25:46.380Z,969.79
2022-11-24T04:26:18.378Z,969.79
2022-11-24T04:26:49.310Z,970.00
2022-11-24T04:27:19.958Z,970.00
2022-11-24T04:27:50.629Z,970.00
2022-11-24T04:28:21.482Z,970.00
2022-11-24T04:28:52.504Z,970.10
2022-11-24T04:29:24.164Z,970.10
2022-11-24T04:30:26.040Z,970.10
2022-11-24T04:30:56.495Z,970.00
2022-11-24T04:31:29.063Z,970.00
2022-11-24T04:31:59.642Z,969.89
2022-11-24T04:32:30.397Z,969.89
2022-11-24T04:33:01.141Z,970.20
2022-11-24T04:33:31.489Z,970.20
2022-11-24T04:34:03.734Z,970.10
2022-11-24T04:34:33.940Z,970.10
2022-11-24T04:35:05.381Z,970.20
2022-11-24T04:35:35.651Z,970.20
2022-11-24T04:36:06.431Z,970.30
2022-11-24T04:36:37.513Z,970.30
2022-11-24T04:37:09.324Z,970.30
2022-11-24T04:37:40.491Z,970.20
2022-11-24T04:38:10.646Z,970.20
2022-11-24T04:39:24.086Z,970.40
2022-11-24T04:39:43.924Z,970.40
2022-11-24T04:40:15.261Z,970.40
2022-11-24T04:40:45.768Z,970.40
2022-11-24T04:41:16.432Z,970.40
2022-11-24T04:41:47.881Z,970.40
2022-11-24T04:42:19.238Z,970.40
2022-11-24T04:42:50.044Z,969.89
2022-11-24T04:43:20.747Z,969.89
2022-11-24T04:43:51.885Z,970.20
2022-11-24T04:44:22.446Z,970.20
2022-11-24T04:44:53.728Z,970.40
2022-11-24T04:45:25.050Z,970.40
2022-11-24T04:45:55.606Z,970.30
2022-11-24T04:46:26.621Z,970.30
2022-11-24T04:46:57.693Z,970.20
2022-11-24T04:47:29.314Z,970.20
2022-11-24T04:48:00.323Z,970.10
2022-11-24T04:48:30.830Z,970.10
2022-11-24T04:49:01.547Z,970.20
2022-11-24T04:49:32.483Z,970.20
2022-11-24T04:50:04.232Z,970.50
2022-11-24T04:50:35.123Z,970.50
2022-11-24T04:51:05.746Z,970.50
2022-11-24T04:51:36.875Z,970.30
2022-11-24T04:52:07.908Z,970.30
2022-11-24T04:52:39.593Z,970.20
2022-11-24T04:53:10.493Z,970.20
2022-11-24T04:53:58.829Z,970.60
2022-11-24T04:54:11.467Z,970.60
2022-11-24T04:54:42.466Z,970.30
2022-11-24T04:55:13.885Z,970.30
2022-11-24T04:55:45.079Z,970.40
2022-11-24T04:56:15.544Z,970.40
2022-11-24T04:56:46.455Z,970.50
2022-11-24T04:57:17.804Z,970.50
2022-11-24T04:57:49.282Z,970.40
2022-11-24T04:58:20.071Z,970.40
2022-11-24T04:58:50.882Z,970.30
2022-11-24T04:59:21.538Z,970.30
2022-11-24T04:59:52.466Z,970.50
2022-11-24T05:00:41.915Z,970.50
2022-11-24T05:00:55.489Z,970.50
2022-11-24T05:01:25.720Z,970.50
2022-11-24T05:02:28.269Z,970.60
2022-11-24T05:02:59.344Z,970.30
2022-11-24T05:03:30.358Z,970.30
2022-11-24T05:04:01.185Z,970.40
2022-11-24T05:04:32.588Z,970.40
2022-11-24T05:05:02.978Z,970.50
2022-11-24T05:05:34.688Z,970.50
2022-11-24T05:06:05.191Z,970.60
2022-11-24T05:06:36.856Z,970.30
2022-11-24T05:07:11.289Z,970.30
2022-11-24T05:07:39.091Z,970.40
2022-11-24T05:08:08.920Z,970.40
2022-11-24T05:08:39.928Z,970.50
2022-11-24T05:09:11.144Z,970.50
2022-11-24T05:09:55.252Z,970.60
2022-11-24T05:10:13.349Z,970.60
2022-11-24T05:11:01.452Z,970.50
2022-11-24T05:11:14.835Z,970.50
2022-11-24T05:11:50.565Z,970.50
2022-11-24T05:12:17.469Z,970.50
2022-11-24T05:12:51.281Z,970.40
2022-11-24T05:13:19.248Z,970.40
2022-11-24T05:13:49.780Z,970.50
2022-11-24T05:14:20.822Z,970.50
2022-11-24T05:14:51.733Z,970.81
2022-11-24T05:15:22.764Z,970.81
2022-11-24T05:15:54.025Z,970.71
2022-11-24T05:16:25.012Z,970.71
2022-11-24T05:16:55.852Z,970.71
2022-11-24T05:17:27.990Z,970.71
2022-11-24T05:17:58.292Z,970.60
2022-11-24T05:18:59.847Z,970.50
2022-11-24T05:19:32.504Z,970.50
2022-11-24T05:20:02.273Z,970.71
2022-11-24T05:20:50.498Z,970.60
2022-11-24T05:21:04.380Z,970.60
2022-11-24T05:21:34.903Z,970.60
2022-11-24T05:22:05.943Z,970.71
2022-11-24T05:22:38.149Z,970.71
2022-11-24T05:23:08.713Z,970.71
2022-11-24T05:23:39.229Z,970.81
2022-11-24T05:24:10.008Z,970.81
2022-11-24T05:24:40.948Z,970.91
2022-11-24T05:25:12.133Z,970.91
2022-11-24T05:25:47.279Z,970.71
2022-11-24T05:26:44.973Z,970.71
2022-11-24T05:27:16.000Z,970.71
2022-11-24T05:27:47.974Z,970.71
2022-11-24T05:28:18.327Z,970.71
2022-11-24T05:28:49.177Z,970.81
2022-11-24T05:29:19.862Z,970.81
2022-11-24T05:29:51.119Z,971.01
2022-11-24T05:30:22.438Z,971.01
2022-11-24T05:30:52.834Z,970.81
2022-11-24T05:31:24.583Z,970.81
2022-11-24T05:31:55.266Z,970.81
2022-11-24T05:32:26.499Z,970.81
2022-11-24T05:32:57.427Z,970.81
2022-11-24T05:34:04.666Z,971.01
2022-11-24T05:34:30.016Z,971.01
2022-11-24T05:35:00.934Z,971.01
2022-11-24T05:35:31.910Z,971.01
2022-11-24T05:36:03.508Z,970.71
2022-11-24T05:37:05.717Z,970.91
2022-11-24T05:37:35.884Z,970.91
2022-11-24T05:38:07.878Z,970.91
2022-11-24T05:38:38.603Z,970.81
2022-11-24T05:39:09.103Z,970.81
2022-11-24T05:39:40.308Z,970.71
2022-11-24T05:40:11.542Z,970.71
2022-11-24T05:40:42.064Z,970.81
2022-11-24T05:41:12.934Z,970.81
2022-11-24T05:41:44.271Z,971.11
2022-11-24T05:42:14.935Z,971.11
2022-11-24T05:43:03.518Z,970.91
2022-11-24T05:43:16.666Z,970.91
2022-11-24T05:43:49.061Z,970.91
2022-11-24T05:44:19.198Z,970.91
2022-11-24T05:44:49.916Z,971.01
2022-11-24T05:45:22.456Z,971.01
2022-11-24T05:45:51.873Z,970.81
2022-11-24T05:46:23.024Z,970.81
2022-11-24T05:46:54.064Z,970.91
2022-11-24T05:47:24.876Z,970.91
2022-11-24T05:47:55.975Z,970.91
2022-11-24T05:48:27.391Z,970.91
2022-11-24T05:48:58.628Z,971.11
2022-11-24T05:49:29.595Z,971.11
2022-11-24T05:49:59.949Z,971.11
2022-11-24T05:50:31.163Z,971.11
2022-11-24T05:51:06.461Z,971.11
2022-11-24T05:51:32.936Z,971.11
2022-11-24T05:52:04.442Z,971.01
2022-11-24T05:53:06.747Z,970.91
2022-11-24T05:53:37.334Z,971.01
2022-11-24T05:54:08.595Z,971.01
2022-11-24T05:54:59.510Z,970.81
2022-11-24T05:55:10.096Z,970.81
2022-11-24T05:55:41.217Z,970.91
2022-11-24T05:56:11.976Z,970.91
2022-11-24T05:56:43.168Z,970.71
2022-11-24T05:57:14.399Z,970.71
2022-11-24T05:57:44.994Z,970.81
2022-11-24T05:58:16.060Z,970.81
2022-11-24T05:58:47.002Z,970.91
2022-11-24T05:59:35.318Z,970.91
2022-11-24T05:59:49.313Z,970.91
2022-11-24T06:00:21.752Z,970.91
2022-11-24T06:00:52.111Z,971.01
2022-11-24T06:01:21.760Z,971.01
2022-11-24T06:01:53.068Z,970.91
2022-11-24T06:02:24.211Z,970.91
2022-11-24T06:02:55.508Z,970.91
2022-11-24T06:03:26.180Z,970.91
2022-11-24T06:03:57.562Z,970.91
2022-11-24T06:04:29.031Z,970.91
2022-11-24T06:04:59.451Z,970.91
2022-11-24T06:05:30.046Z,970.91
2022-11-24T06:06:00.989Z,970.91
2022-11-24T06:06:34.073Z,970.91
2022-11-24T06:07:34.903Z,971.11
2022-11-24T06:08:05.305Z,971.11
2022-11-24T06:08:37.040Z,971.11
2022-11-24T06:09:06.934Z,971.11
2022-11-24T06:09:39.788Z,971.01
2022-11-24T06:10:10.166Z,971.01
2022-11-24T06:10:40.248Z,970.81
2022-11-24T06:11:11.102Z,970.81
2022-11-24T06:11:41.854Z,971.01
2022-11-24T06:12:13.316Z,971.01
2022-11-24T06:12:48.162Z,971.01
2022-11-24T06:13:22.377Z,971.01
2022-11-24T06:13:46.166Z,971.11
2022-11-24T06:14:17.316Z,971.11
2022-11-24T06:14:49.272Z,971.11
2022-11-24T06:16:53.467Z,971.11
2022-11-24T06:17:22.965Z,971.11
2022-11-24T06:17:54.511Z,971.11
2022-11-24T06:18:29.944Z,971.11
2022-11-24T06:18:55.935Z,971.28
2022-11-24T06:19:27.403Z,971.28
2022-11-24T06:19:59.165Z,971.11
2022-11-24T06:20:32.831Z,971.11
2022-11-24T06:21:10.953Z,971.01
2022-11-24T06:21:31.159Z,971.01
2022-11-24T06:22:01.943Z,971.21
2022-11-24T06:22:33.215Z,971.21
2022-11-24T06:23:04.553Z,971.11
2022-11-24T06:23:35.203Z,971.11
2022-11-24T06:24:06.353Z,971.21
2022-11-24T06:24:37.346Z,971.21
2022-11-24T06:25:09.255Z,971.21
2022-11-24T06:25:48.712Z,970.81
2022-11-24T06:26:10.313Z,970.81
2022-11-24T06:26:41.299Z,971.28
2022-11-24T06:27:12.244Z,971.28
2022-11-24T06:27:43.247Z,971.21
2022-11-24T06:28:14.533Z,971.21
2022-11-24T06:28:45.180Z,971.11
2022-11-24T06:29:16.026Z,971.11
2022-11-24T06:29:47.057Z,971.21
2022-11-24T06:30:20.591Z,971.21
2022-11-24T06:30:59.757Z,971.28
2022-11-24T06:31:20.832Z,971.28
2022-11-24T06:31:51.369Z,971.11
2022-11-24T06:32:22.177Z,971.11
2022-11-24T06:32:53.545Z,971.28
2022-11-24T06:33:24.532Z,971.28
2022-11-24T06:34:00.590Z,971.28
2022-11-24T06:34:26.220Z,971.28
2022-11-24T06:34:57.385Z,971.28
2022-11-24T06:35:28.273Z,971.28
2022-11-24T06:36:00.100Z,971.38
2022-11-24T06:36:30.576Z,971.38
2022-11-24T06:37:01.463Z,971.28
2022-11-24T06:37:32.406Z,971.28
2022-11-24T06:38:03.225Z,971.21
2022-11-24T06:38:34.669Z,971.21
2022-11-24T06:39:05.299Z,971.38
2022-11-24T06:39:36.135Z,971.49
2022-11-24T06:40:08.966Z,971.49
2022-11-24T06:40:38.996Z,971.21
2022-11-24T06:41:10.509Z,971.21
2022-11-24T06:41:41.051Z,971.28
2022-11-24T06:42:27.857Z,971.28
2022-11-24T06:42:42.315Z,971.21
2022-11-24T06:43:13.101Z,971.21
2022-11-24T06:43:44.094Z,971.28
2022-11-24T06:44:15.633Z,971.28
2022-11-24T06:44:46.099Z,971.28
2022-11-24T06:45:17.122Z,971.28
2022-11-24T06:45:49.048Z,971.38
2022-11-24T06:46:20.254Z,971.38
2022-11-24T06:46:50.852Z,971.38